Time,TemperatureF,DewpointF,PressureIn,WindDirection,WindDirectionDegrees,WindSpeedMPH,WindSpeedGustMPH,Humidity,HourlyPrecipIn,Conditions,Clouds,dailyrainin,SoftwareType,DateUTC
2013-02-05 00:04:00,42.3,34.3,29.97,N/A,-737280,0.0,-999.0,73,0.00,,,0.01,Wunderground v.1.15,2013-02-05 05:04:00,
2013-02-05 00:09:00,42.2,35.2,29.97,N/A,-737280,0.0,-999.0,76,0.00,,,0.01,Wunderground v.1.15,2013-02-05 05:09:00,
2013-02-05 00:14:00,42.2,35.2,29.98,N/A,-737280,0.0,-999.0,76,0.00,,,0.01,Wunderground v.1.15,2013-02-05 05:14:00,
2013-02-05 00:19:00,42.1,35.1,29.98,N/A,-737280,0.0,-999.0,76,0.00,,,0.01,Wunderground v.1.15,2013-02-05 05:19:00,
2013-02-05 00:24:00,42.1,35.7,29.98,N/A,-737280,0.0,-999.0,78,0.00,,,0.01,Wunderground v.1.15,2013-02-05 05:24:00,
2013-02-05 00:29:00,42.0,35.3,29.97,N/A,-737280,0.0,-999.0,77,0.00,,,0.01,Wunderground v.1.15,2013-02-05 05:29:00,
2013-02-05 00:34:00,42.0,35.6,29.97,N/A,-737280,0.0,-999.0,78,0.00,,,0.01,Wunderground v.1.15,2013-02-05 05:34:00,
2013-02-05 00:39:00,41.9,35.9,29.98,N/A,-737280,0.0,-999.0,79,0.00,,,0.01,Wunderground v.1.15,2013-02-05 05:39:00,
2013-02-05 00:44:00,41.8,36.1,29.97,N/A,-737280,0.0,-999.0,80,0.00,,,0.01,Wunderground v.1.15,2013-02-05 05:44:00,
2013-02-05 00:49:00,41.8,36.1,29.97,N/A,-737280,0.0,-999.0,80,0.00,,,0.01,Wunderground v.1.15,2013-02-05 05:49:00,
2013-02-05 00:54:00,41.8,36.1,29.97,N/A,-737280,0.0,-999.0,80,0.00,,,0.01,Wunderground v.1.15,2013-02-05 05:54:00,
2013-02-05 00:59:00,41.7,36.0,29.97,N/A,-737280,0.0,-999.0,80,0.00,,,0.01,Wunderground v.1.15,2013-02-05 05:59:00,
2013-02-05 01:04:00,41.6,36.2,29.96,N/A,-737280,0.0,-999.0,81,0.00,,,0.01,Wunderground v.1.15,2013-02-05 06:04:00,
2013-02-05 01:09:00,41.6,35.9,29.96,N/A,-737280,0.0,-999.0,80,0.00,,,0.01,Wunderground v.1.15,2013-02-05 06:09:00,
2013-02-05 01:14:00,41.5,35.8,29.96,N/A,-737280,0.0,-999.0,80,0.00,,,0.01,Wunderground v.1.15,2013-02-05 06:14:00,
2013-02-05 01:19:00,41.5,36.1,29.96,N/A,-737280,0.0,-999.0,81,0.00,,,0.01,Wunderground v.1.15,2013-02-05 06:19:00,
2013-02-05 01:24:00,41.4,36.3,29.96,N/A,-737280,0.0,-999.0,82,0.00,,,0.01,Wunderground v.1.15,2013-02-05 06:24:00,
2013-02-05 01:29:00,41.4,36.3,29.96,N/A,-737280,0.0,-999.0,82,0.00,,,0.01,Wunderground v.1.15,2013-02-05 06:29:00,
2013-02-05 01:34:00,41.3,36.2,29.96,N/A,-737280,0.0,-999.0,82,0.00,,,0.01,Wunderground v.1.15,2013-02-05 06:34:00,
2013-02-05 01:39:00,41.3,36.2,29.96,N/A,-737280,0.0,-999.0,82,0.00,,,0.01,Wunderground v.1.15,2013-02-05 06:39:00,
2013-02-05 01:44:00,41.2,36.4,29.96,West,270,0.0,-999.0,83,0.00,,,0.01,Wunderground v.1.15,2013-02-05 06:44:00,
2013-02-05 01:49:00,41.1,36.3,29.96,N/A,-737280,0.0,-999.0,83,0.00,,,0.01,Wunderground v.1.15,2013-02-05 06:49:00,
2013-02-05 01:54:00,41.1,36.6,29.95,N/A,-737280,0.0,-999.0,84,0.00,,,0.01,Wunderground v.1.15,2013-02-05 06:54:00,
2013-02-05 01:59:00,41.1,36.3,29.95,N/A,-737280,0.0,-999.0,83,0.00,,,0.01,Wunderground v.1.15,2013-02-05 06:59:00,
2013-02-05 02:04:00,41.0,36.2,29.95,N/A,-737280,0.0,-999.0,83,0.00,,,0.01,Wunderground v.1.15,2013-02-05 07:04:00,
2013-02-05 02:09:00,41.0,36.5,29.95,N/A,-737280,0.0,-999.0,84,0.00,,,0.01,Wunderground v.1.15,2013-02-05 07:09:00,
2013-02-05 02:14:00,40.9,36.4,29.95,N/A,-737280,0.0,-999.0,84,0.00,,,0.01,Wunderground v.1.15,2013-02-05 07:14:00,
2013-02-05 02:19:00,40.9,36.1,29.95,N/A,-737280,0.0,-999.0,83,0.00,,,0.01,Wunderground v.1.15,2013-02-05 07:19:00,
2013-02-05 02:24:00,40.8,36.3,29.95,N/A,-737280,0.0,-999.0,84,0.00,,,0.01,Wunderground v.1.15,2013-02-05 07:24:00,
2013-02-05 02:29:00,40.8,36.3,29.95,N/A,-737280,0.0,-999.0,84,0.00,,,0.01,Wunderground v.1.15,2013-02-05 07:29:00,
2013-02-05 02:34:00,40.7,36.2,29.95,N/A,-737280,0.0,-999.0,84,0.00,,,0.01,Wunderground v.1.15,2013-02-05 07:34:00,
2013-02-05 02:39:00,40.7,36.2,29.95,N/A,-737280,0.0,-999.0,84,0.00,,,0.01,Wunderground v.1.15,2013-02-05 07:39:00,
2013-02-05 02:44:00,40.6,36.1,29.95,N/A,-737280,0.0,-999.0,84,0.00,,,0.01,Wunderground v.1.15,2013-02-05 07:44:00,
2013-02-05 02:49:00,40.6,36.1,29.95,N/A,-737280,0.0,-999.0,84,0.00,,,0.01,Wunderground v.1.15,2013-02-05 07:49:00,
2013-02-05 02:54:00,40.6,36.1,29.95,N/A,-737280,0.0,-999.0,84,0.00,,,0.01,Wunderground v.1.15,2013-02-05 07:54:00,
2013-02-05 02:59:00,40.5,36.3,29.95,N/A,-737280,0.0,-999.0,85,0.00,,,0.01,Wunderground v.1.15,2013-02-05 07:59:00,
2013-02-05 03:04:00,40.5,36.3,29.95,N/A,-737280,0.0,-999.0,85,0.00,,,0.01,Wunderground v.1.15,2013-02-05 08:04:00,
2013-02-05 03:09:00,40.5,36.6,29.95,N/A,-737280,0.0,-999.0,86,0.00,,,0.01,Wunderground v.1.15,2013-02-05 08:09:00,
2013-02-05 03:14:00,40.5,36.3,29.95,N/A,-737280,0.0,-999.0,85,0.00,,,0.01,Wunderground v.1.15,2013-02-05 08:14:00,
2013-02-05 03:19:00,40.5,36.3,29.94,N/A,-737280,0.0,-999.0,85,0.00,,,0.01,Wunderground v.1.15,2013-02-05 08:19:00,
2013-02-05 03:24:00,40.5,36.6,29.95,N/A,-737280,0.0,-999.0,86,0.00,,,0.01,Wunderground v.1.15,2013-02-05 08:24:00,
2013-02-05 03:29:00,40.6,36.7,29.95,N/A,-737280,0.0,-999.0,86,0.00,,,0.01,Wunderground v.1.15,2013-02-05 08:29:00,
2013-02-05 03:34:00,40.6,36.7,29.95,N/A,-737280,0.0,-999.0,86,0.00,,,0.01,Wunderground v.1.15,2013-02-05 08:34:00,
2013-02-05 03:39:00,40.6,35.8,29.95,N/A,-737280,0.0,-999.0,83,0.00,,,0.01,Wunderground v.1.15,2013-02-05 08:39:00,
2013-02-05 03:44:00,40.6,36.4,29.95,N/A,-737280,0.0,-999.0,85,0.00,,,0.01,Wunderground v.1.15,2013-02-05 08:44:00,
2013-02-05 03:49:00,40.7,36.5,29.95,N/A,-737280,0.0,-999.0,85,0.00,,,0.01,Wunderground v.1.15,2013-02-05 08:49:00,
2013-02-05 03:54:00,40.7,36.5,29.96,N/A,-737280,0.0,-999.0,85,0.00,,,0.01,Wunderground v.1.15,2013-02-05 08:54:00,
2013-02-05 03:59:00,40.7,36.5,29.96,N/A,-737280,0.0,-999.0,85,0.00,,,0.01,Wunderground v.1.15,2013-02-05 08:59:00,
2013-02-05 04:04:00,40.8,37.2,29.96,N/A,-737280,0.0,-999.0,87,0.00,,,0.01,Wunderground v.1.15,2013-02-05 09:04:00,
2013-02-05 04:09:00,40.8,37.5,29.96,N/A,-737280,0.0,-999.0,88,0.00,,,0.01,Wunderground v.1.15,2013-02-05 09:09:00,
2013-02-05 04:14:00,40.8,37.5,29.96,N/A,-737280,0.0,-999.0,88,0.00,,,0.01,Wunderground v.1.15,2013-02-05 09:14:00,
2013-02-05 04:19:00,40.8,37.8,29.96,N/A,-737280,0.0,-999.0,89,0.00,,,0.01,Wunderground v.1.15,2013-02-05 09:19:00,
2013-02-05 04:24:00,40.8,37.8,29.96,N/A,-737280,0.0,-999.0,89,0.00,,,0.01,Wunderground v.1.15,2013-02-05 09:24:00,
2013-02-05 04:29:00,40.7,38.0,29.97,N/A,-737280,0.0,-999.0,90,0.01,,,0.01,Wunderground v.1.15,2013-02-05 09:29:00,
2013-02-05 04:34:00,40.7,38.3,29.96,West,270,0.0,-999.0,91,0.01,,,0.01,Wunderground v.1.15,2013-02-05 09:34:00,
2013-02-05 04:39:00,40.6,38.2,29.96,N/A,-737280,0.0,-999.0,91,0.01,,,0.01,Wunderground v.1.15,2013-02-05 09:39:00,
2013-02-05 04:44:00,40.6,38.2,29.96,N/A,-737280,0.0,-999.0,91,0.01,,,0.01,Wunderground v.1.15,2013-02-05 09:44:00,
2013-02-05 04:49:00,40.5,38.1,29.95,N/A,-737280,0.0,-999.0,91,0.01,,,0.01,Wunderground v.1.15,2013-02-05 09:49:00,
2013-02-05 04:54:00,40.5,38.1,29.95,N/A,-737280,0.0,-999.0,91,0.01,,,0.01,Wunderground v.1.15,2013-02-05 09:54:00,
2013-02-05 04:59:00,40.4,38.0,29.95,N/A,-737280,0.0,-999.0,91,0.01,,,0.01,Wunderground v.1.15,2013-02-05 09:59:00,
2013-02-05 05:04:00,40.3,37.9,29.94,West,270,0.0,-999.0,91,0.01,,,0.01,Wunderground v.1.15,2013-02-05 10:04:00,
2013-02-05 05:09:00,40.2,37.8,29.94,N/A,-737280,0.0,-999.0,91,0.01,,,0.01,Wunderground v.1.15,2013-02-05 10:09:00,
2013-02-05 05:14:00,40.2,37.8,29.95,West,270,1.0,-999.0,91,0.01,,,0.01,Wunderground v.1.15,2013-02-05 10:14:00,
2013-02-05 05:19:00,40.1,37.7,29.95,N/A,-737280,0.0,-999.0,91,0.01,,,0.01,Wunderground v.1.15,2013-02-05 10:19:00,
2013-02-05 05:24:00,40.1,37.7,29.96,N/A,-737280,0.0,-999.0,91,0.01,,,0.01,Wunderground v.1.15,2013-02-05 10:24:00,
2013-02-05 05:29:00,40.0,37.6,29.95,N/A,-737280,0.0,-999.0,91,0.00,,,0.01,Wunderground v.1.15,2013-02-05 10:29:00,
2013-02-05 05:34:00,40.0,37.6,29.96,N/A,-737280,0.0,-999.0,91,0.00,,,0.01,Wunderground v.1.15,2013-02-05 10:34:00,
2013-02-05 05:39:00,40.0,37.9,29.96,N/A,-737280,0.0,-999.0,92,0.00,,,0.01,Wunderground v.1.15,2013-02-05 10:39:00,
2013-02-05 05:44:00,40.0,37.9,29.96,N/A,-737280,0.0,-999.0,92,0.00,,,0.01,Wunderground v.1.15,2013-02-05 10:44:00,
2013-02-05 05:49:00,40.0,37.9,29.96,N/A,-737280,0.0,-999.0,92,0.00,,,0.01,Wunderground v.1.15,2013-02-05 10:49:00,
2013-02-05 05:54:00,40.0,38.1,29.96,N/A,-737280,0.0,-999.0,93,0.00,,,0.01,Wunderground v.1.15,2013-02-05 10:54:00,
2013-02-05 05:59:00,40.0,38.1,29.96,N/A,-737280,0.0,-999.0,93,0.00,,,0.01,Wunderground v.1.15,2013-02-05 10:59:00,
2013-02-05 06:04:00,40.0,38.1,29.95,N/A,-737280,0.0,-999.0,93,0.00,,,0.01,Wunderground v.1.15,2013-02-05 11:04:00,
2013-02-05 06:09:00,40.0,38.1,29.96,N/A,-737280,0.0,-999.0,93,0.00,,,0.01,Wunderground v.1.15,2013-02-05 11:09:00,
2013-02-05 06:14:00,40.0,38.1,29.96,N/A,-737280,0.0,-999.0,93,0.00,,,0.01,Wunderground v.1.15,2013-02-05 11:14:00,
2013-02-05 06:19:00,40.0,38.1,29.96,N/A,-737280,0.0,-999.0,93,0.00,,,0.01,Wunderground v.1.15,2013-02-05 11:19:00,
2013-02-05 06:24:00,40.0,38.1,29.97,N/A,-737280,0.0,-999.0,93,0.00,,,0.01,Wunderground v.1.15,2013-02-05 11:24:00,
2013-02-05 06:29:00,40.0,38.4,29.97,N/A,-737280,0.0,-999.0,94,0.00,,,0.01,Wunderground v.1.15,2013-02-05 11:29:00,
2013-02-05 06:34:00,40.0,38.4,29.97,N/A,-737280,0.0,-999.0,94,0.00,,,0.01,Wunderground v.1.15,2013-02-05 11:34:00,
2013-02-05 06:39:00,40.0,38.4,29.97,N/A,-737280,0.0,-999.0,94,0.00,,,0.01,Wunderground v.1.15,2013-02-05 11:39:00,
2013-02-05 06:44:00,40.0,38.4,29.96,N/A,-737280,0.0,-999.0,94,0.00,,,0.01,Wunderground v.1.15,2013-02-05 11:44:00,
2013-02-05 06:49:00,40.0,38.4,29.96,N/A,-737280,0.0,-999.0,94,0.00,,,0.01,Wunderground v.1.15,2013-02-05 11:49:00,
2013-02-05 06:54:00,40.0,38.4,29.97,N/A,-737280,0.0,-999.0,94,0.00,,,0.01,Wunderground v.1.15,2013-02-05 11:54:00,
2013-02-05 06:59:00,40.0,38.4,29.97,N/A,-737280,0.0,-999.0,94,0.00,,,0.01,Wunderground v.1.15,2013-02-05 11:59:00,
2013-02-05 07:04:00,40.0,38.4,29.97,N/A,-737280,0.0,-999.0,94,0.00,,,0.01,Wunderground v.1.15,2013-02-05 12:04:00,
2013-02-05 07:09:00,40.0,38.4,29.98,N/A,-737280,0.0,-999.0,94,0.00,,,0.01,Wunderground v.1.15,2013-02-05 12:09:00,
2013-02-05 07:14:00,40.0,38.4,29.98,N/A,-737280,0.0,-999.0,94,0.00,,,0.01,Wunderground v.1.15,2013-02-05 12:14:00,
2013-02-05 07:19:00,40.0,38.4,29.98,N/A,-737280,0.0,-999.0,94,0.00,,,0.01,Wunderground v.1.15,2013-02-05 12:19:00,
2013-02-05 07:24:00,40.0,38.4,29.98,N/A,-737280,0.0,-999.0,94,0.00,,,0.01,Wunderground v.1.15,2013-02-05 12:24:00,
2013-02-05 07:40:00,40.1,38.5,29.98,N/A,-737280,0.0,-999.0,94,0.00,,,0.01,Wunderground v.1.15,2013-02-05 12:40:00,
2013-02-05 07:45:00,40.1,38.8,29.99,West,276,0.0,0.0,95,0.00,,,0.01,Wunderground v.1.15,2013-02-05 12:45:00,
2013-02-05 07:50:00,40.1,38.8,29.99,West,276,0.0,0.0,95,0.00,,,0.01,Wunderground v.1.15,2013-02-05 12:50:00,
2013-02-05 07:55:00,40.1,38.8,29.99,West,276,0.0,0.0,95,0.00,,,0.01,Wunderground v.1.15,2013-02-05 12:55:00,
2013-02-05 08:05:00,40.1,38.8,29.99,West,276,0.0,0.0,95,0.00,,,0.01,Wunderground v.1.15,2013-02-05 13:05:00,
2013-02-05 08:10:00,40.2,38.9,29.99,West,276,0.0,0.0,95,0.00,,,0.01,Wunderground v.1.15,2013-02-05 13:10:00,
2013-02-05 08:20:00,40.3,39.0,29.98,West,276,0.0,0.0,95,0.00,,,0.01,Wunderground v.1.15,2013-02-05 13:20:00,
2013-02-05 08:25:00,40.4,39.1,29.98,West,276,0.0,0.0,95,0.00,,,0.01,Wunderground v.1.15,2013-02-05 13:25:00,
2013-02-05 08:30:00,40.4,39.1,29.98,West,276,0.0,0.0,95,0.00,,,0.01,Wunderground v.1.15,2013-02-05 13:30:00,
2013-02-05 08:35:00,40.5,39.2,29.99,West,276,0.0,0.0,95,0.00,,,0.01,Wunderground v.1.15,2013-02-05 13:35:00,
2013-02-05 08:40:00,40.6,39.3,29.99,West,276,0.0,0.0,95,0.00,,,0.01,Wunderground v.1.15,2013-02-05 13:40:00,
2013-02-05 08:45:00,40.6,39.3,29.99,West,276,0.0,0.0,95,0.00,,,0.01,Wunderground v.1.15,2013-02-05 13:45:00,
2013-02-05 08:50:00,40.9,39.6,29.99,West,269,0.0,0.0,95,0.00,,,0.01,Wunderground v.1.15,2013-02-05 13:50:00,
2013-02-05 08:55:00,41.1,39.8,29.99,SSE,161,0.0,0.0,95,0.00,,,0.01,Wunderground v.1.15,2013-02-05 13:55:00,
2013-02-05 09:00:00,41.4,39.8,29.99,SW,216,0.0,0.0,94,0.00,,,0.01,Wunderground v.1.15,2013-02-05 14:00:00,
2013-02-05 09:10:00,42.0,39.8,30.00,South,177,0.0,0.0,92,0.00,,,0.01,Wunderground v.1.15,2013-02-05 14:10:00,
2013-02-05 09:15:00,42.4,40.2,30.00,West,265,0.0,0.0,92,0.00,,,0.01,Wunderground v.1.15,2013-02-05 14:15:00,
2013-02-05 09:25:00,43.4,40.7,30.00,West,277,1.0,1.0,90,0.00,,,0.01,Wunderground v.1.15,2013-02-05 14:25:00,
2013-02-05 09:30:00,43.9,40.6,30.00,West,263,0.0,0.0,88,0.00,,,0.01,Wunderground v.1.15,2013-02-05 14:30:00,
2013-02-05 09:35:00,44.4,41.4,30.00,West,268,0.0,0.0,89,0.00,,,0.01,Wunderground v.1.15,2013-02-05 14:35:00,
2013-02-05 09:45:00,45.3,41.7,30.01,SSW,204,0.0,0.0,87,0.00,,,0.01,Wunderground v.1.15,2013-02-05 14:45:00,
2013-02-05 09:50:00,45.9,42.2,30.01,SSW,203,0.0,0.0,87,0.00,,,0.01,Wunderground v.1.15,2013-02-05 14:50:00,
2013-02-05 10:00:00,46.9,42.6,30.01,East,101,0.0,1.0,85,0.00,,,0.01,Wunderground v.1.15,2013-02-05 15:00:00,
2013-02-05 10:10:00,47.8,42.9,30.01,NE,49,0.0,0.0,83,0.00,,,0.01,Wunderground v.1.15,2013-02-05 15:10:00,
2013-02-05 10:15:00,48.3,42.7,30.01,West,273,0.0,0.0,81,0.00,,,0.01,Wunderground v.1.15,2013-02-05 15:15:00,
2013-02-05 10:20:00,49.0,43.7,30.01,ESE,113,0.0,0.0,82,0.00,,,0.01,Wunderground v.1.15,2013-02-05 15:20:00,
2013-02-05 10:30:00,50.7,44.4,30.01,West,264,1.0,4.0,79,0.00,,,0.01,Wunderground v.1.15,2013-02-05 15:30:00,
2013-02-05 10:40:00,52.6,46.6,30.01,WNW,283,1.0,5.0,80,0.00,,,0.01,Wunderground v.1.15,2013-02-05 15:40:00,
2013-02-05 10:45:00,53.0,45.3,30.01,NNE,32,2.0,5.0,75,0.00,,,0.01,Wunderground v.1.15,2013-02-05 15:45:00,
2013-02-05 10:50:00,53.4,45.7,30.01,SSE,162,1.0,1.0,75,0.00,,,0.01,Wunderground v.1.15,2013-02-05 15:50:00,
2013-02-05 10:55:00,53.8,46.1,30.01,East,99,0.0,2.0,75,0.00,,,0.01,Wunderground v.1.15,2013-02-05 15:55:00,
2013-02-05 11:00:00,54.0,45.2,30.01,SE,124,1.0,1.0,72,0.00,,,0.01,Wunderground v.1.15,2013-02-05 16:00:00,
2013-02-05 11:10:00,54.8,45.9,30.01,ENE,75,1.0,2.0,72,0.00,,,0.01,Wunderground v.1.15,2013-02-05 16:10:00,
2013-02-05 11:15:00,55.2,46.0,30.01,ESE,107,2.0,4.0,71,0.00,,,0.01,Wunderground v.1.15,2013-02-05 16:15:00,
2013-02-05 11:20:00,55.5,45.5,30.01,East,82,2.0,2.0,69,0.00,,,0.01,Wunderground v.1.15,2013-02-05 16:20:00,
2013-02-05 11:30:00,56.6,46.2,30.01,WNW,293,1.0,4.0,68,0.00,,,0.01,Wunderground v.1.15,2013-02-05 16:30:00,
2013-02-05 11:35:00,56.9,45.7,30.01,West,278,2.0,4.0,66,0.00,,,0.01,Wunderground v.1.15,2013-02-05 16:35:00,
2013-02-05 11:40:00,57.3,46.4,30.00,NW,319,3.0,3.0,67,0.00,,,0.01,Wunderground v.1.15,2013-02-05 16:40:00,
2013-02-05 11:45:00,57.7,45.6,30.00,WSW,256,2.0,3.0,64,0.00,,,0.01,Wunderground v.1.15,2013-02-05 16:45:00,
2013-02-05 11:50:00,58.2,46.9,30.00,East,100,1.0,1.0,66,0.00,,,0.01,Wunderground v.1.15,2013-02-05 16:50:00,
2013-02-05 11:55:00,58.5,46.8,30.00,SE,125,1.0,3.0,65,0.00,,,0.01,Wunderground v.1.15,2013-02-05 16:55:00,
2013-02-05 12:00:00,58.6,46.0,30.00,South,181,1.0,4.0,63,0.00,,,0.01,Wunderground v.1.15,2013-02-05 17:00:00,
2013-02-05 12:10:00,58.7,46.1,30.00,ESE,122,1.0,1.0,63,0.00,,,0.01,Wunderground v.1.15,2013-02-05 17:10:00,
2013-02-05 12:20:00,59.1,46.9,29.99,West,268,0.0,2.0,64,0.00,,,0.01,Wunderground v.1.15,2013-02-05 17:20:00,
2013-02-05 12:25:00,59.1,45.2,29.99,WNW,283,1.0,4.0,60,0.00,,,0.01,Wunderground v.1.15,2013-02-05 17:25:00,
2013-02-05 12:30:00,59.2,46.2,29.99,SE,137,2.0,2.0,62,0.00,,,0.01,Wunderground v.1.15,2013-02-05 17:30:00,
2013-02-05 12:35:00,59.2,45.8,29.98,North,9,2.0,2.0,61,0.00,,,0.01,Wunderground v.1.15,2013-02-05 17:35:00,
2013-02-05 12:40:00,59.3,46.3,29.98,SE,124,2.0,2.0,62,0.00,,,0.01,Wunderground v.1.15,2013-02-05 17:40:00,
2013-02-05 12:50:00,59.6,46.1,29.97,NW,318,1.0,4.0,61,0.00,,,0.01,Wunderground v.1.15,2013-02-05 17:50:00,
2013-02-05 12:55:00,59.7,44.9,29.97,North,352,1.0,4.0,58,0.00,,,0.01,Wunderground v.1.15,2013-02-05 17:55:00,
2013-02-05 13:00:00,60.0,46.1,29.96,South,172,1.0,1.0,60,0.00,,,0.01,Wunderground v.1.15,2013-02-05 18:00:00,
2013-02-05 13:10:00,60.8,46.8,29.96,South,183,1.0,1.0,60,0.00,,,0.01,Wunderground v.1.15,2013-02-05 18:10:00,
2013-02-05 13:20:00,61.1,45.3,29.95,West,281,2.0,2.0,56,0.00,,,0.01,Wunderground v.1.15,2013-02-05 18:20:00,
2013-02-05 13:25:00,61.3,45.5,29.95,WNW,290,2.0,2.0,56,0.00,,,0.01,Wunderground v.1.15,2013-02-05 18:25:00,
2013-02-05 13:30:00,61.3,45.5,29.95,WNW,298,2.0,2.0,56,0.00,,,0.01,Wunderground v.1.15,2013-02-05 18:30:00,
2013-02-05 13:35:00,61.3,44.5,29.94,West,279,3.0,3.0,54,0.00,,,0.01,Wunderground v.1.15,2013-02-05 18:35:00,
2013-02-05 13:40:00,61.4,45.1,29.95,ESE,121,1.0,1.0,55,0.00,,,0.01,Wunderground v.1.15,2013-02-05 18:40:00,
2013-02-05 13:45:00,61.4,44.6,29.94,ESE,104,1.0,1.0,54,0.00,,,0.01,Wunderground v.1.15,2013-02-05 18:45:00,
2013-02-05 13:50:00,61.4,43.6,29.94,WSW,250,2.0,2.0,52,0.00,,,0.01,Wunderground v.1.15,2013-02-05 18:50:00,
2013-02-05 14:00:00,61.9,44.6,29.93,SSE,165,1.0,1.0,53,0.00,,,0.01,Wunderground v.1.15,2013-02-05 19:00:00,
2013-02-05 14:10:00,62.4,44.0,29.93,ESE,110,1.0,1.0,51,0.00,,,0.01,Wunderground v.1.15,2013-02-05 19:10:00,
2013-02-05 14:15:00,62.3,43.9,29.93,SE,133,1.0,1.0,51,0.00,,,0.01,Wunderground v.1.15,2013-02-05 19:15:00,
2013-02-05 14:20:00,62.6,44.2,29.93,NE,49,1.0,1.0,51,0.00,,,0.01,Wunderground v.1.15,2013-02-05 19:20:00,
2013-02-05 14:25:00,62.8,45.4,29.93,SW,235,1.0,2.0,53,0.00,,,0.01,Wunderground v.1.15,2013-02-05 19:25:00,
2013-02-05 14:30:00,63.0,45.6,29.93,WNW,291,1.0,1.0,53,0.00,,,0.01,Wunderground v.1.15,2013-02-05 19:30:00,
2013-02-05 14:35:00,63.0,45.1,29.93,East,90,1.0,4.0,52,0.00,,,0.01,Wunderground v.1.15,2013-02-05 19:35:00,
2013-02-05 14:40:00,62.8,45.4,29.93,South,177,1.0,2.0,53,0.00,,,0.01,Wunderground v.1.15,2013-02-05 19:40:00,
2013-02-05 14:50:00,61.9,45.5,29.92,ESE,119,2.0,2.0,55,0.00,,,0.01,Wunderground v.1.15,2013-02-05 19:50:00,
2013-02-05 14:55:00,61.6,45.3,29.92,SSE,152,3.0,5.0,55,0.00,,,0.01,Wunderground v.1.15,2013-02-05 19:55:00,
2013-02-05 15:00:00,61.3,45.5,29.92,NE,47,2.0,2.0,56,0.00,,,0.01,Wunderground v.1.15,2013-02-05 20:00:00,
2013-02-05 15:10:00,60.9,44.6,29.92,ESE,109,2.0,2.0,55,0.00,,,0.01,Wunderground v.1.15,2013-02-05 20:10:00,
2013-02-05 15:15:00,60.7,44.9,29.92,ESE,103,3.0,5.0,56,0.00,,,0.01,Wunderground v.1.15,2013-02-05 20:15:00,
2013-02-05 15:20:00,60.5,44.7,29.92,WNW,283,2.0,4.0,56,0.00,,,0.01,Wunderground v.1.15,2013-02-05 20:20:00,
2013-02-05 15:25:00,60.3,44.5,29.91,SE,141,2.0,4.0,56,0.00,,,0.01,Wunderground v.1.15,2013-02-05 20:25:00,
2013-02-05 15:30:00,60.3,44.5,29.91,SE,142,2.0,4.0,56,0.00,,,0.01,Wunderground v.1.15,2013-02-05 20:30:00,
2013-02-05 15:35:00,60.2,44.0,29.91,SE,127,2.0,4.0,55,0.00,,,0.01,Wunderground v.1.15,2013-02-05 20:35:00,
2013-02-05 15:45:00,60.1,43.9,29.91,NNE,33,2.0,4.0,55,0.00,,,0.01,Wunderground v.1.15,2013-02-05 20:45:00,
2013-02-05 15:55:00,60.0,44.3,29.91,ESE,121,1.0,4.0,56,0.00,,,0.01,Wunderground v.1.15,2013-02-05 20:55:00,
2013-02-05 16:00:00,60.0,43.8,29.91,SE,130,1.0,1.0,55,0.00,,,0.01,Wunderground v.1.15,2013-02-05 21:00:00,
2013-02-05 16:10:00,60.0,42.8,29.91,South,187,1.0,3.0,53,0.00,,,0.01,Wunderground v.1.15,2013-02-05 21:10:00,
2013-02-05 16:15:00,60.0,42.3,29.91,East,98,1.0,3.0,52,0.00,,,0.01,Wunderground v.1.15,2013-02-05 21:15:00,
2013-02-05 16:20:00,60.0,42.3,29.91,SE,132,2.0,2.0,52,0.00,,,0.01,Wunderground v.1.15,2013-02-05 21:20:00,
2013-02-05 16:25:00,60.0,42.3,29.91,ESE,112,1.0,2.0,52,0.00,,,0.01,Wunderground v.1.15,2013-02-05 21:25:00,
2013-02-05 16:30:00,60.0,42.3,29.91,ESE,119,1.0,1.0,52,0.00,,,0.01,Wunderground v.1.15,2013-02-05 21:30:00,
2013-02-05 16:40:00,59.8,42.6,29.91,East,92,1.0,2.0,53,0.00,,,0.01,Wunderground v.1.15,2013-02-05 21:40:00,
2013-02-05 16:45:00,59.8,43.1,29.91,ESE,118,1.0,2.0,54,0.00,,,0.01,Wunderground v.1.15,2013-02-05 21:45:00,
2013-02-05 16:55:00,59.7,43.0,29.91,WNW,285,1.0,1.0,54,0.00,,,0.01,Wunderground v.1.15,2013-02-05 21:55:00,
2013-02-05 17:00:00,59.6,43.4,29.91,SE,144,1.0,1.0,55,0.00,,,0.01,Wunderground v.1.15,2013-02-05 22:00:00,
2013-02-05 17:10:00,59.4,42.7,29.91,East,88,1.0,3.0,54,0.00,,,0.01,Wunderground v.1.15,2013-02-05 22:10:00,
2013-02-05 17:15:00,59.3,43.1,29.91,ESE,104,1.0,3.0,55,0.00,,,0.01,Wunderground v.1.15,2013-02-05 22:15:00,
2013-02-05 17:20:00,59.2,42.6,29.91,SSE,155,1.0,1.0,54,0.00,,,0.01,Wunderground v.1.15,2013-02-05 22:20:00,
2013-02-05 17:30:00,59.1,42.9,29.91,SE,131,0.0,0.0,55,0.00,,,0.01,Wunderground v.1.15,2013-02-05 22:30:00,
2013-02-05 17:40:00,58.9,42.8,29.91,SE,137,0.0,0.0,55,0.00,,,0.01,Wunderground v.1.15,2013-02-05 22:40:00,
2013-02-05 17:45:00,58.7,43.0,29.91,SSE,153,0.0,0.0,56,0.00,,,0.01,Wunderground v.1.15,2013-02-05 22:45:00,
2013-02-05 17:50:00,58.5,42.8,29.91,SSW,192,0.0,0.0,56,0.00,,,0.01,Wunderground v.1.15,2013-02-05 22:50:00,
2013-02-05 17:55:00,58.2,43.5,29.91,SSW,192,0.0,0.0,58,0.00,,,0.01,Wunderground v.1.15,2013-02-05 22:55:00,
2013-02-05 18:00:00,58.0,43.7,29.92,SSW,192,0.0,0.0,59,0.00,,,0.01,Wunderground v.1.15,2013-02-05 23:00:00,
2013-02-05 18:10:00,57.2,43.9,29.92,SSW,192,0.0,0.0,61,0.00,,,0.01,Wunderground v.1.15,2013-02-05 23:10:00,
2013-02-05 18:15:00,56.8,44.3,29.92,SSW,192,0.0,0.0,63,0.00,,,0.01,Wunderground v.1.15,2013-02-05 23:15:00,
2013-02-05 18:25:00,55.3,43.7,29.92,SSW,192,0.0,0.0,65,0.00,,,0.01,Wunderground v.1.15,2013-02-05 23:25:00,
2013-02-05 18:30:00,54.6,43.5,29.92,SSW,192,0.0,0.0,66,0.00,,,0.01,Wunderground v.1.15,2013-02-05 23:30:00,
2013-02-05 18:35:00,53.9,43.2,29.92,SSW,192,0.0,0.0,67,0.00,,,0.01,Wunderground v.1.15,2013-02-05 23:35:00,
2013-02-05 18:40:00,53.1,43.2,29.93,SSW,192,0.0,0.0,69,0.00,,,0.01,Wunderground v.1.15,2013-02-05 23:40:00,
2013-02-05 18:45:00,52.4,42.9,29.93,SSW,192,0.0,0.0,70,0.00,,,0.01,Wunderground v.1.15,2013-02-05 23:45:00,
2013-02-05 18:50:00,51.6,42.5,29.93,SSW,192,0.0,0.0,71,0.00,,,0.01,Wunderground v.1.15,2013-02-05 23:50:00,
2013-02-05 18:55:00,51.0,42.3,29.93,SSW,192,0.0,0.0,72,0.00,,,0.01,Wunderground v.1.15,2013-02-05 23:55:00,
2013-02-05 19:00:00,50.5,42.2,29.94,SSW,192,0.0,0.0,73,0.00,,,0.01,Wunderground v.1.15,2013-02-06 00:00:00,
2013-02-05 19:10:00,49.5,41.9,29.94,SSW,192,0.0,0.0,75,0.00,,,0.01,Wunderground v.1.15,2013-02-06 00:10:00,
2013-02-05 19:15:00,49.0,41.8,29.94,SSW,192,0.0,0.0,76,0.00,,,0.01,Wunderground v.1.15,2013-02-06 00:15:00,
2013-02-05 19:20:00,48.6,41.7,29.94,SSW,192,0.0,0.0,77,0.00,,,0.01,Wunderground v.1.15,2013-02-06 00:20:00,
2013-02-05 19:25:00,48.2,41.7,29.94,SSW,192,0.0,0.0,78,0.00,,,0.01,Wunderground v.1.15,2013-02-06 00:25:00,
2013-02-05 19:30:00,47.8,41.3,29.95,SSW,192,0.0,0.0,78,0.00,,,0.01,Wunderground v.1.15,2013-02-06 00:30:00,
2013-02-05 19:35:00,47.5,41.3,29.95,SSW,192,0.0,0.0,79,0.00,,,0.01,Wunderground v.1.15,2013-02-06 00:35:00,
2013-02-05 19:45:00,46.8,41.0,29.95,SSW,192,0.0,0.0,80,0.00,,,0.01,Wunderground v.1.15,2013-02-06 00:45:00,
2013-02-05 19:55:00,46.2,40.7,29.95,SSW,192,0.0,0.0,81,0.00,,,0.01,Wunderground v.1.15,2013-02-06 00:55:00,
2013-02-05 20:00:00,45.9,40.4,29.96,SSW,192,0.0,0.0,81,0.00,,,0.01,Wunderground v.1.15,2013-02-06 01:00:00,
2013-02-05 20:09:00,45.3,40.1,29.96,SSW,192,0.0,0.0,82,0.00,,,0.01,Wunderground v.1.15,2013-02-06 01:09:00,
2013-02-05 20:15:00,45.1,39.9,29.96,SSW,192,0.0,0.0,82,0.00,,,0.01,Wunderground v.1.15,2013-02-06 01:15:00,
2013-02-05 20:25:00,44.6,39.8,29.97,SSW,192,0.0,0.0,83,0.00,,,0.01,Wunderground v.1.15,2013-02-06 01:25:00,
2013-02-05 20:30:00,44.3,39.5,29.97,SSW,192,0.0,0.0,83,0.00,,,0.01,Wunderground v.1.15,2013-02-06 01:30:00,
2013-02-05 20:35:00,44.1,39.3,29.97,SSW,192,0.0,0.0,83,0.00,,,0.01,Wunderground v.1.15,2013-02-06 01:35:00,
2013-02-05 20:40:00,43.9,39.1,29.97,SSW,192,0.0,1.0,83,0.00,,,0.01,Wunderground v.1.15,2013-02-06 01:40:00,
2013-02-05 20:45:00,43.6,39.1,29.97,SSW,192,0.0,1.0,84,0.00,,,0.01,Wunderground v.1.15,2013-02-06 01:45:00,
2013-02-05 20:55:00,43.2,38.7,29.97,SSW,192,0.0,0.0,84,0.00,,,0.01,Wunderground v.1.15,2013-02-06 01:55:00,
2013-02-05 21:00:00,42.9,38.4,29.97,SSW,192,0.0,0.0,84,0.00,,,0.01,Wunderground v.1.15,2013-02-06 02:00:00,
2013-02-05 21:10:00,42.5,38.3,29.98,SSW,192,0.0,0.0,85,0.00,,,0.01,Wunderground v.1.15,2013-02-06 02:10:00,
2013-02-05 21:15:00,42.3,38.4,29.98,SSW,192,0.0,0.0,86,0.00,,,0.01,Wunderground v.1.15,2013-02-06 02:15:00,
2013-02-05 21:20:00,42.1,38.2,29.98,SSW,192,0.0,0.0,86,0.00,,,0.01,Wunderground v.1.15,2013-02-06 02:20:00,
2013-02-05 21:30:00,41.8,37.9,29.98,SSW,192,0.0,0.0,86,0.00,,,0.01,Wunderground v.1.15,2013-02-06 02:30:00,
2013-02-05 21:35:00,41.5,37.6,29.98,SSW,192,0.0,0.0,86,0.00,,,0.01,Wunderground v.1.15,2013-02-06 02:35:00,
2013-02-05 21:40:00,41.3,37.4,29.99,SSW,192,0.0,0.0,86,0.00,,,0.01,Wunderground v.1.15,2013-02-06 02:40:00,
2013-02-05 21:50:00,40.9,37.3,29.99,SSW,192,0.0,0.0,87,0.00,,,0.01,Wunderground v.1.15,2013-02-06 02:50:00,
2013-02-05 21:55:00,40.7,37.1,29.99,SSW,192,0.0,0.0,87,0.00,,,0.01,Wunderground v.1.15,2013-02-06 02:55:00,
2013-02-05 22:00:00,40.5,37.2,29.99,SSW,192,0.0,0.0,88,0.00,,,0.01,Wunderground v.1.15,2013-02-06 03:00:00,
2013-02-05 22:10:00,40.1,36.8,30.00,SSW,192,0.0,0.0,88,0.00,,,0.01,Wunderground v.1.15,2013-02-06 03:10:00,
2013-02-05 22:15:00,40.0,36.7,30.00,SSW,192,0.0,0.0,88,0.00,,,0.01,Wunderground v.1.15,2013-02-06 03:15:00,
2013-02-05 22:20:00,39.8,36.5,30.00,SSW,192,0.0,0.0,88,0.00,,,0.01,Wunderground v.1.15,2013-02-06 03:20:00,
2013-02-05 22:30:00,39.5,36.2,30.00,SSW,192,0.0,0.0,88,0.00,,,0.01,Wunderground v.1.15,2013-02-06 03:30:00,
2013-02-05 22:35:00,39.3,36.0,30.00,SSW,192,0.0,0.0,88,0.00,,,0.01,Wunderground v.1.15,2013-02-06 03:35:00,
2013-02-05 22:40:00,39.2,36.2,30.00,SSW,192,0.0,0.0,89,0.00,,,0.01,Wunderground v.1.15,2013-02-06 03:40:00,
2013-02-05 22:45:00,39.0,36.0,30.00,SSW,192,0.0,0.0,89,0.00,,,0.01,Wunderground v.1.15,2013-02-06 03:45:00,
2013-02-05 22:55:00,38.7,35.7,30.01,SSW,192,0.0,0.0,89,0.00,,,0.01,Wunderground v.1.15,2013-02-06 03:55:00,
2013-02-05 23:00:00,38.6,35.6,30.01,SSW,192,0.0,0.0,89,0.00,,,0.01,Wunderground v.1.15,2013-02-06 04:00:00,
2013-02-05 23:10:00,38.2,35.2,30.01,SSW,192,0.0,0.0,89,0.00,,,0.01,Wunderground v.1.15,2013-02-06 04:10:00,
2013-02-05 23:15:00,38.1,35.1,30.01,SSW,192,0.0,0.0,89,0.00,,,0.01,Wunderground v.1.15,2013-02-06 04:15:00,
2013-02-05 23:20:00,37.9,34.9,30.01,SSW,192,0.0,0.0,89,0.00,,,0.01,Wunderground v.1.15,2013-02-06 04:20:00,
2013-02-05 23:25:00,37.8,34.8,30.01,SSW,192,0.0,0.0,89,0.00,,,0.01,Wunderground v.1.15,2013-02-06 04:25:00,
2013-02-05 23:35:00,37.5,34.6,30.01,SSW,192,0.0,0.0,89,0.00,,,0.01,Wunderground v.1.15,2013-02-06 04:35:00,
2013-02-05 23:40:00,37.3,34.6,30.02,SSW,192,0.0,0.0,90,0.00,,,0.01,Wunderground v.1.15,2013-02-06 04:40:00,
2013-02-05 23:45:00,37.2,34.5,30.02,SSW,192,0.0,0.0,90,0.00,,,0.01,Wunderground v.1.15,2013-02-06 04:45:00,
2013-02-05 23:50:00,37.1,34.4,30.02,SSW,192,0.0,0.0,90,0.00,,,0.01,Wunderground v.1.15,2013-02-06 04:50:00,
2013-02-05 23:55:00,36.9,34.2,30.02,SSW,192,0.0,0.0,90,0.00,,,0.01,Wunderground v.1.15,2013-02-06 04:55:00,